createdAt,value
2019-06-26T00:01:06.644Z,99.90
2019-06-26T00:03:35.984Z,99.90
2019-06-26T00:06:05.365Z,99.90
2019-06-26T00:08:34.635Z,99.90
2019-06-26T00:11:04.016Z,99.90
2019-06-26T00:13:33.416Z,99.90
2019-06-26T00:16:02.845Z,99.90
2019-06-26T00:18:32.221Z,99.90
2019-06-26T00:21:01.615Z,99.90
2019-06-26T00:23:30.960Z,99.90
2019-06-26T00:26:00.326Z,99.90
2019-06-26T00:28:29.574Z,99.90
2019-06-26T00:30:58.999Z,99.90
2019-06-26T00:33:28.355Z,99.90
2019-06-26T00:36:21.732Z,99.90
2019-06-26T00:38:51.122Z,99.90
2019-06-26T00:41:20.525Z,99.90
2019-06-26T00:43:49.882Z,99.90
2019-06-26T00:46:19.122Z,99.90
2019-06-26T00:48:48.532Z,99.90
2019-06-26T00:51:17.883Z,99.90
2019-06-26T00:53:47.233Z,99.90
2019-06-26T00:56:16.484Z,99.90
2019-06-26T00:58:45.906Z,99.90
2019-06-26T01:01:15.966Z,99.90
2019-06-26T01:03:45.240Z,99.90
2019-06-26T01:06:33.584Z,99.90
2019-06-26T01:09:02.999Z,99.90
2019-06-26T01:11:32.190Z,99.90
2019-06-26T01:14:01.537Z,99.90
2019-06-26T01:16:30.918Z,99.90
2019-06-26T01:19:00.201Z,99.90
2019-06-26T01:21:29.833Z,99.90
2019-06-26T01:23:59.174Z,99.90
2019-06-26T01:26:28.586Z,99.90
2019-06-26T01:28:57.928Z,99.90
2019-06-26T01:31:27.586Z,99.90
2019-06-26T01:33:56.942Z,99.90
2019-06-26T01:36:26.333Z,99.90
2019-06-26T01:38:55.574Z,99.90
2019-06-26T01:41:24.883Z,99.90
2019-06-26T01:43:54.203Z,99.90
2019-06-26T01:46:23.585Z,99.90
2019-06-26T01:48:52.933Z,99.90
2019-06-26T01:51:22.249Z,99.90
2019-06-26T01:53:51.480Z,99.90
2019-06-26T01:56:20.779Z,99.90
2019-06-26T01:58:50.134Z,99.90
2019-06-26T02:01:19.518Z,99.90
2019-06-26T02:03:48.816Z,99.90
2019-06-26T02:06:18.099Z,99.90
2019-06-26T02:08:47.664Z,99.90
2019-06-26T02:11:17.045Z,99.90
2019-06-26T02:13:46.300Z,99.90
2019-06-26T02:16:15.522Z,99.90
2019-06-26T02:18:52.134Z,99.90
2019-06-26T02:21:21.395Z,99.90
2019-06-26T02:23:50.691Z,99.90
2019-06-26T02:26:19.952Z,99.90
2019-06-26T02:28:49.211Z,99.90
2019-06-26T02:31:18.418Z,99.90
2019-06-26T02:33:47.662Z,99.90
2019-06-26T02:36:16.897Z,99.90
2019-06-26T02:38:46.288Z,99.90
2019-06-26T02:41:15.628Z,99.90
2019-06-26T02:43:44.903Z,99.90
2019-06-26T02:46:14.195Z,99.90
2019-06-26T02:48:43.447Z,99.90
2019-06-26T02:51:12.727Z,99.90
2019-06-26T02:53:42.008Z,99.90
2019-06-26T02:56:11.257Z,99.90
2019-06-26T02:58:40.479Z,99.90
2019-06-26T03:01:09.733Z,99.90
2019-06-26T03:03:39.004Z,99.90
2019-06-26T03:06:08.289Z,99.90
2019-06-26T03:08:37.672Z,99.90
2019-06-26T03:11:06.975Z,99.90
2019-06-26T03:13:36.248Z,99.90
2019-06-26T03:16:05.490Z,99.90
2019-06-26T03:18:34.873Z,99.90
2019-06-26T03:21:04.169Z,99.90
2019-06-26T03:23:33.400Z,99.90
2019-06-26T03:26:02.657Z,99.90
2019-06-26T03:28:32.041Z,99.90
2019-06-26T03:31:01.314Z,99.90
2019-06-26T03:33:30.719Z,99.90
2019-06-26T03:35:59.960Z,99.90
2019-06-26T03:38:29.300Z,99.90
2019-06-26T03:40:58.621Z,99.90
2019-06-26T03:43:27.997Z,99.90
2019-06-26T03:45:57.234Z,99.90
2019-06-26T03:48:26.598Z,99.90
2019-06-26T03:50:55.915Z,99.90
2019-06-26T03:53:25.132Z,99.90
2019-06-26T03:55:54.430Z,99.90
2019-06-26T03:58:23.668Z,99.90
2019-06-26T04:00:52.961Z,99.90
2019-06-26T04:03:22.284Z,99.90
2019-06-26T04:05:51.588Z,99.90
2019-06-26T04:08:20.961Z,99.90
2019-06-26T04:10:50.251Z,99.90
2019-06-26T04:13:19.464Z,99.90
2019-06-26T04:15:50.911Z,99.90
2019-06-26T04:18:20.408Z,99.90
2019-06-26T04:20:49.711Z,99.90
2019-06-26T04:23:19.130Z,99.90
2019-06-26T04:25:48.372Z,99.90
2019-06-26T04:28:17.624Z,99.90
2019-06-26T04:30:46.842Z,99.90
2019-06-26T04:33:16.167Z,99.90
2019-06-26T04:35:45.385Z,99.90
2019-06-26T04:38:14.679Z,99.90
2019-06-26T04:40:43.936Z,99.90
2019-06-26T04:43:13.304Z,99.90
2019-06-26T04:45:57.252Z,99.90
2019-06-26T04:48:13.656Z,99.90
2019-06-26T04:50:42.948Z,99.90
2019-06-26T04:53:12.250Z,99.90
2019-06-26T04:55:41.534Z,99.90
2019-06-26T04:58:10.887Z,99.90
2019-06-26T05:00:40.257Z,99.90
2019-06-26T05:03:09.569Z,99.90
2019-06-26T05:05:40.069Z,99.90
2019-06-26T05:08:09.595Z,99.90
2019-06-26T05:10:38.827Z,99.90
2019-06-26T05:13:08.224Z,99.90
2019-06-26T05:15:37.553Z,99.90
2019-06-26T05:18:06.795Z,99.90
2019-06-26T05:20:36.091Z,99.90
2019-06-26T05:23:05.413Z,99.90
2019-06-26T05:25:34.773Z,99.90
2019-06-26T05:28:04.059Z,99.90
2019-06-26T05:30:33.309Z,99.90
2019-06-26T05:33:02.577Z,99.90
2019-06-26T05:35:34.876Z,99.90
2019-06-26T05:38:02.848Z,99.90
2019-06-26T05:40:32.101Z,99.90
2019-06-26T05:43:01.450Z,99.90
2019-06-26T05:45:30.768Z,99.90
2019-06-26T05:48:00.118Z,99.90
2019-06-26T05:50:29.538Z,99.90
2019-06-26T05:52:58.867Z,99.90
2019-06-26T05:55:28.098Z,99.90
2019-06-26T05:57:57.490Z,99.90
2019-06-26T06:00:26.779Z,99.90
2019-06-26T06:02:56.157Z,99.90
2019-06-26T06:05:25.523Z,99.90
2019-06-26T06:07:54.772Z,99.90
2019-06-26T06:10:24.333Z,99.90
2019-06-26T06:12:53.726Z,99.90
2019-06-26T06:15:23.069Z,99.90
2019-06-26T06:17:52.304Z,99.90
2019-06-26T06:20:31.832Z,99.90
2019-06-26T06:23:01.082Z,99.90
2019-06-26T06:25:30.311Z,99.90
2019-06-26T06:27:59.709Z,99.90
2019-06-26T06:30:29.087Z,99.90
2019-06-26T06:32:58.448Z,99.90
2019-06-26T06:35:27.862Z,99.90
2019-06-26T06:37:57.096Z,99.90
2019-06-26T06:40:26.364Z,99.90
2019-06-26T06:42:55.558Z,99.90
2019-06-26T06:45:24.827Z,99.90
2019-06-26T06:47:54.234Z,99.90
2019-06-26T06:50:23.522Z,99.90
2019-06-26T06:52:52.823Z,99.90
2019-06-26T06:55:22.216Z,99.90
2019-06-26T06:57:51.485Z,99.90
2019-06-26T07:00:22.107Z,99.90
2019-06-26T07:02:51.396Z,99.90
2019-06-26T07:05:20.691Z,99.90
2019-06-26T07:07:49.926Z,99.90
2019-06-26T07:10:19.320Z,99.90
2019-06-26T07:12:48.532Z,99.90
2019-06-26T07:15:17.929Z,99.90
2019-06-26T07:17:47.302Z,99.90
2019-06-26T07:20:16.872Z,99.90
2019-06-26T07:22:46.091Z,99.90
2019-06-26T07:25:15.452Z,99.90
2019-06-26T07:27:44.701Z,99.90
2019-06-26T07:30:14.465Z,99.90
2019-06-26T07:32:43.764Z,99.90
2019-06-26T07:35:13.202Z,99.90
2019-06-26T07:37:42.424Z,99.90
2019-06-26T07:40:11.903Z,99.90
2019-06-26T07:42:41.187Z,99.90
2019-06-26T07:45:10.754Z,99.90
2019-06-26T07:47:43.568Z,99.90
2019-06-26T07:50:11.984Z,99.90
2019-06-26T07:52:41.308Z,99.90
2019-06-26T07:55:12.394Z,99.90
2019-06-26T07:57:41.741Z,99.90
2019-06-26T08:00:11.978Z,99.90
2019-06-26T08:02:41.498Z,99.90
2019-06-26T08:05:11.429Z,99.90
2019-06-26T08:07:40.689Z,99.90
2019-06-26T08:10:10.342Z,99.90
2019-06-26T08:12:39.601Z,99.90
2019-06-26T08:15:09.021Z,99.90
2019-06-26T08:17:38.345Z,99.90
2019-06-26T08:20:08.054Z,99.90
2019-06-26T08:22:37.435Z,99.90
2019-06-26T08:25:07.104Z,99.90
2019-06-26T08:27:36.366Z,99.90
2019-06-26T08:30:06.297Z,99.90
2019-06-26T08:32:35.588Z,99.80
2019-06-26T08:35:04.966Z,99.00
2019-06-26T08:37:34.306Z,97.70
2019-06-26T08:40:03.587Z,97.10
2019-06-26T08:42:33.277Z,96.50
2019-06-26T08:45:02.564Z,96.30
2019-06-26T08:47:31.881Z,96.00
2019-06-26T08:50:01.144Z,95.70
2019-06-26T08:52:30.392Z,95.10
2019-06-26T08:54:59.728Z,94.10
2019-06-26T08:57:29.002Z,93.70
2019-06-26T08:59:58.306Z,92.70
2019-06-26T09:02:27.567Z,92.10
2019-06-26T09:04:56.778Z,91.90
2019-06-26T09:07:26.057Z,91.60
2019-06-26T09:09:55.293Z,91.30
2019-06-26T09:12:24.748Z,90.30
2019-06-26T09:14:54.100Z,90.00
2019-06-26T09:17:23.359Z,90.00
2019-06-26T09:19:52.695Z,90.00
2019-06-26T09:22:21.940Z,89.60
2019-06-26T09:24:51.283Z,89.00
2019-06-26T09:27:20.529Z,88.50
2019-06-26T09:29:49.911Z,88.20
2019-06-26T09:32:19.129Z,85.60
2019-06-26T09:34:48.465Z,84.30
2019-06-26T09:37:17.760Z,84.60
2019-06-26T09:39:47.125Z,83.10
2019-06-26T09:42:19.474Z,82.80
2019-06-26T09:44:47.381Z,82.50
2019-06-26T09:47:16.640Z,80.10
2019-06-26T09:49:45.870Z,77.70
2019-06-26T09:52:15.264Z,77.50
2019-06-26T09:54:44.488Z,77.80
2019-06-26T09:57:13.724Z,77.60
2019-06-26T09:59:42.978Z,77.20
2019-06-26T10:02:12.298Z,75.80
2019-06-26T10:04:41.616Z,73.80
2019-06-26T10:07:10.868Z,72.50
2019-06-26T10:09:40.101Z,72.60
2019-06-26T10:12:09.568Z,72.50
2019-06-26T10:14:47.470Z,72.50
2019-06-26T10:17:09.821Z,71.10
2019-06-26T10:19:39.104Z,71.10
2019-06-26T10:22:08.371Z,69.20
2019-06-26T10:24:37.550Z,68.90
2019-06-26T10:27:06.998Z,68.60
2019-06-26T10:29:36.217Z,68.80
2019-06-26T10:32:05.595Z,67.90
2019-06-26T10:34:34.830Z,67.20
2019-06-26T10:37:04.143Z,67.20
2019-06-26T10:39:33.388Z,68.30
2019-06-26T10:42:02.720Z,67.60
2019-06-26T10:44:32.093Z,67.40
2019-06-26T10:47:01.400Z,66.90
2019-06-26T10:49:30.716Z,66.40
2019-06-26T10:52:00.020Z,68.60
2019-06-26T10:54:29.336Z,69.00
2019-06-26T10:56:58.733Z,69.20
2019-06-26T10:59:28.121Z,69.30
2019-06-26T11:01:57.453Z,70.20
2019-06-26T11:04:26.755Z,69.80
2019-06-26T11:06:56.077Z,70.60
2019-06-26T11:09:25.320Z,70.60
2019-06-26T11:11:54.594Z,69.20
2019-06-26T11:14:23.915Z,69.20
2019-06-26T11:16:53.161Z,66.20
2019-06-26T11:19:22.478Z,65.60
2019-06-26T11:21:51.836Z,65.60
2019-06-26T11:24:21.280Z,65.80
2019-06-26T11:26:50.537Z,66.70
2019-06-26T11:29:19.829Z,68.40
2019-06-26T11:31:49.145Z,68.20
2019-06-26T11:34:18.477Z,70.00
2019-06-26T11:37:02.781Z,69.80
2019-06-26T11:39:18.616Z,70.80
2019-06-26T11:41:47.904Z,71.00
2019-06-26T11:44:17.247Z,71.10
2019-06-26T11:46:46.585Z,70.90
2019-06-26T11:49:15.889Z,70.90
2019-06-26T11:51:45.125Z,69.50
2019-06-26T11:54:14.397Z,70.40
2019-06-26T11:56:43.629Z,71.70
2019-06-26T11:59:12.864Z,71.10
2019-06-26T12:01:42.120Z,72.00
2019-06-26T12:04:11.448Z,74.00
2019-06-26T12:06:40.779Z,74.90
2019-06-26T12:09:10.238Z,75.80
2019-06-26T12:11:39.569Z,76.30
2019-06-26T12:14:08.836Z,77.00
2019-06-26T12:16:38.156Z,74.30
2019-06-26T12:19:07.409Z,73.10
2019-06-26T12:21:36.678Z,73.10
2019-06-26T12:24:05.938Z,74.20
2019-06-26T12:26:35.173Z,68.90
2019-06-26T12:29:04.530Z,69.80
2019-06-26T12:31:33.875Z,71.40
2019-06-26T12:34:03.189Z,72.10
2019-06-26T12:36:32.578Z,71.80
2019-06-26T12:39:01.854Z,72.20
2019-06-26T12:41:31.271Z,72.90
2019-06-26T12:44:00.510Z,72.90
2019-06-26T12:46:29.787Z,73.80
2019-06-26T12:48:59.040Z,75.00
2019-06-26T12:51:28.437Z,75.50
2019-06-26T12:53:58.590Z,76.00
2019-06-26T12:56:28.053Z,77.20
2019-06-26T12:58:59.888Z,77.60
2019-06-26T13:01:28.233Z,77.10
2019-06-26T13:03:57.604Z,74.30
2019-06-26T13:06:26.883Z,75.60
2019-06-26T13:08:56.118Z,75.80
2019-06-26T13:11:25.448Z,76.00
2019-06-26T13:14:02.612Z,75.30
2019-06-26T13:16:25.558Z,75.20
2019-06-26T13:18:54.833Z,75.10
2019-06-26T13:21:24.165Z,75.50
2019-06-26T13:23:53.483Z,75.70
2019-06-26T13:26:22.865Z,76.70
2019-06-26T13:28:52.129Z,77.70
2019-06-26T13:31:21.461Z,77.50
2019-06-26T13:33:50.727Z,77.70
2019-06-26T13:36:20.010Z,78.70
2019-06-26T13:38:49.345Z,79.10
2019-06-26T13:41:18.765Z,79.10
2019-06-26T13:43:48.085Z,78.50
2019-06-26T13:46:17.335Z,79.30
2019-06-26T13:48:46.653Z,80.20
2019-06-26T13:51:15.913Z,81.50
2019-06-26T13:53:45.164Z,81.40
2019-06-26T13:56:14.571Z,84.00
2019-06-26T13:58:43.840Z,83.10
2019-06-26T14:01:13.184Z,82.90
2019-06-26T14:03:42.422Z,82.90
2019-06-26T14:06:11.730Z,83.50
2019-06-26T14:08:40.979Z,81.70
2019-06-26T14:11:10.204Z,82.40
2019-06-26T14:13:41.808Z,82.80
2019-06-26T14:16:10.494Z,81.40
2019-06-26T14:18:39.740Z,81.80
2019-06-26T14:21:21.517Z,82.00
2019-06-26T14:23:39.977Z,81.50
2019-06-26T14:26:09.180Z,81.80
2019-06-26T14:28:38.532Z,83.00
2019-06-26T14:31:08.137Z,83.40
2019-06-26T14:33:37.548Z,83.70
2019-06-26T14:36:06.856Z,84.60
2019-06-26T14:38:36.169Z,83.90
2019-06-26T14:41:05.548Z,83.20
2019-06-26T14:43:34.804Z,84.40
2019-06-26T14:46:04.123Z,84.90
2019-06-26T14:48:33.363Z,84.00
2019-06-26T14:51:02.745Z,83.50
2019-06-26T14:53:32.044Z,83.00
2019-06-26T14:56:01.324Z,81.80
2019-06-26T14:58:30.615Z,82.10
2019-06-26T15:00:59.840Z,83.70
2019-06-26T15:03:29.204Z,82.20
2019-06-26T15:06:12.256Z,82.60
2019-06-26T15:08:29.463Z,82.30
2019-06-26T15:10:58.717Z,83.20
2019-06-26T15:13:28.154Z,82.70
2019-06-26T15:15:57.588Z,84.10
2019-06-26T15:18:26.828Z,84.70
2019-06-26T15:20:56.097Z,86.10
2019-06-26T15:23:25.340Z,86.50
2019-06-26T15:25:54.612Z,87.10
2019-06-26T15:28:23.897Z,87.40
2019-06-26T15:30:53.246Z,89.10
2019-06-26T15:33:22.460Z,87.40
2019-06-26T15:35:51.788Z,88.30
2019-06-26T15:38:21.037Z,88.30
2019-06-26T15:40:50.477Z,89.20
2019-06-26T15:43:19.738Z,89.70
2019-06-26T15:45:48.965Z,90.50
2019-06-26T15:48:18.350Z,90.80
2019-06-26T15:50:47.619Z,91.20
2019-06-26T15:53:16.896Z,92.00
2019-06-26T15:55:46.154Z,92.60
2019-06-26T15:58:15.513Z,93.10
2019-06-26T16:00:45.489Z,93.50
2019-06-26T16:03:15.959Z,93.10
2019-06-26T16:05:45.620Z,92.30
2019-06-26T16:08:15.281Z,93.00
2019-06-26T16:10:45.544Z,92.90
2019-06-26T16:13:15.576Z,93.50
2019-06-26T16:15:45.467Z,93.70
2019-06-26T16:18:27.319Z,94.00
2019-06-26T16:20:57.222Z,93.90
2019-06-26T16:23:27.638Z,93.30
2019-06-26T16:25:58.040Z,93.20
2019-06-26T16:28:27.721Z,93.50
2019-06-26T16:30:58.388Z,93.90
2019-06-26T16:33:28.678Z,94.40
2019-06-26T16:35:58.420Z,95.00
2019-06-26T16:38:30.081Z,95.40
2019-06-26T16:40:59.506Z,95.50
2019-06-26T16:43:28.904Z,95.80
2019-06-26T16:45:59.588Z,96.40
2019-06-26T16:48:29.410Z,97.00
2019-06-26T16:50:59.932Z,97.50
2019-06-26T16:53:30.149Z,97.70
2019-06-26T16:55:59.959Z,98.10
2019-06-26T16:58:29.914Z,98.50
2019-06-26T17:01:00.549Z,98.60
2019-06-26T17:03:30.881Z,98.60
2019-06-26T17:06:01.017Z,98.30
2019-06-26T17:08:31.156Z,98.00
2019-06-26T17:11:01.067Z,98.50
2019-06-26T17:13:31.013Z,98.50
2019-06-26T17:16:00.687Z,98.90
2019-06-26T17:18:30.598Z,99.20
2019-06-26T17:21:00.554Z,98.90
2019-06-26T17:23:30.416Z,98.30
2019-06-26T17:25:59.766Z,98.20
2019-06-26T17:28:29.773Z,97.80
2019-06-26T17:30:59.450Z,97.80
2019-06-26T17:33:29.135Z,98.30
2019-06-26T17:35:59.055Z,98.60
2019-06-26T17:38:28.433Z,98.70
2019-06-26T17:40:59.518Z,99.00
2019-06-26T17:43:29.393Z,99.10
2019-06-26T17:45:59.328Z,99.10
2019-06-26T17:48:29.264Z,99.20
2019-06-26T17:50:59.236Z,99.20
2019-06-26T17:53:29.089Z,99.60
2019-06-26T17:55:59.377Z,99.90
2019-06-26T17:58:29.097Z,99.90
2019-06-26T18:00:58.929Z,99.90
2019-06-26T18:03:28.544Z,99.90
2019-06-26T18:05:58.360Z,99.90
2019-06-26T18:08:27.764Z,99.90
2019-06-26T18:10:57.146Z,99.90
2019-06-26T18:13:36.913Z,99.90
2019-06-26T18:16:06.378Z,99.90
2019-06-26T18:18:35.889Z,99.90
2019-06-26T18:21:06.394Z,99.90
2019-06-26T18:23:38.371Z,99.90
2019-06-26T18:26:13.562Z,99.90
2019-06-26T18:28:38.681Z,99.90
2019-06-26T18:31:07.938Z,99.90
2019-06-26T18:33:37.260Z,99.90
2019-06-26T18:36:07.308Z,99.90
2019-06-26T18:38:36.555Z,99.90
2019-06-26T18:41:05.870Z,99.90
2019-06-26T18:43:35.268Z,99.90
2019-06-26T18:46:04.512Z,99.90
2019-06-26T18:48:33.891Z,99.90
2019-06-26T18:51:03.202Z,99.90
2019-06-26T18:53:32.969Z,99.90
2019-06-26T18:56:02.428Z,99.90
2019-06-26T18:58:31.649Z,99.90
2019-06-26T19:01:00.904Z,99.90
2019-06-26T19:03:30.357Z,99.90
2019-06-26T19:05:59.656Z,99.90
2019-06-26T19:08:28.914Z,99.90
2019-06-26T19:11:00.349Z,99.90
2019-06-26T19:13:31.242Z,99.90
2019-06-26T19:16:04.430Z,99.90
2019-06-26T19:18:34.197Z,99.90
2019-06-26T19:21:05.029Z,99.90
2019-06-26T19:23:38.896Z,99.90
2019-06-26T19:26:08.228Z,99.90
2019-06-26T19:28:37.395Z,99.90
2019-06-26T19:31:18.562Z,99.90
2019-06-26T19:33:47.584Z,99.90
2019-06-26T19:36:16.880Z,99.90
2019-06-26T19:38:46.200Z,99.90
2019-06-26T19:41:15.577Z,99.90
2019-06-26T19:43:44.914Z,99.90
2019-06-26T19:46:14.262Z,99.90
2019-06-26T19:48:43.669Z,99.90
2019-06-26T19:51:12.922Z,99.90
2019-06-26T19:53:42.232Z,99.90
2019-06-26T19:56:11.481Z,99.90
2019-06-26T19:58:40.925Z,99.90
2019-06-26T20:01:10.220Z,99.90
2019-06-26T20:03:39.601Z,99.90
2019-06-26T20:06:08.903Z,99.90
2019-06-26T20:08:51.659Z,99.90
2019-06-26T20:11:09.388Z,99.90
2019-06-26T20:13:38.612Z,99.90
2019-06-26T20:16:07.800Z,99.90
2019-06-26T20:18:37.861Z,99.90
2019-06-26T20:21:07.046Z,99.90
2019-06-26T20:23:36.260Z,99.90
2019-06-26T20:26:05.473Z,99.90
2019-06-26T20:28:34.722Z,99.90
2019-06-26T20:31:04.212Z,99.90
2019-06-26T20:33:33.497Z,99.90
2019-06-26T20:36:02.759Z,99.90
2019-06-26T20:38:31.945Z,99.90
2019-06-26T20:41:01.298Z,99.90
2019-06-26T20:43:30.545Z,99.90
2019-06-26T20:45:59.895Z,99.90
2019-06-26T20:48:29.120Z,99.90
2019-06-26T20:50:58.336Z,99.90
2019-06-26T20:53:28.070Z,99.90
2019-06-26T20:55:57.409Z,99.90
2019-06-26T20:58:26.688Z,99.90
2019-06-26T21:00:55.999Z,99.90
2019-06-26T21:03:25.282Z,99.90
2019-06-26T21:05:54.529Z,99.90
2019-06-26T21:08:23.728Z,99.90
2019-06-26T21:10:52.942Z,99.90
2019-06-26T21:13:22.160Z,99.90
2019-06-26T21:15:52.994Z,99.90
2019-06-26T21:18:22.284Z,99.90
2019-06-26T21:20:51.613Z,99.90
2019-06-26T21:23:23.294Z,99.90
2019-06-26T21:25:51.820Z,99.90
2019-06-26T21:28:20.984Z,99.90
2019-06-26T21:30:50.193Z,99.90
2019-06-26T21:33:19.388Z,99.90
2019-06-26T21:35:48.590Z,99.90
2019-06-26T21:38:17.794Z,99.90
2019-06-26T21:40:47.073Z,99.90
2019-06-26T21:43:16.310Z,99.90
2019-06-26T21:45:45.581Z,99.90
2019-06-26T21:48:14.825Z,99.90
2019-06-26T21:50:44.118Z,99.90
2019-06-26T21:53:13.306Z,99.90
2019-06-26T21:55:42.656Z,99.90
2019-06-26T21:58:11.945Z,99.90
2019-06-26T22:00:41.209Z,99.90
2019-06-26T22:03:11.276Z,99.90
2019-06-26T22:05:40.527Z,99.90
2019-06-26T22:08:09.899Z,99.90
2019-06-26T22:10:39.085Z,99.90
2019-06-26T22:13:08.396Z,99.90
2019-06-26T22:15:37.569Z,99.90
2019-06-26T22:18:06.773Z,99.90
2019-06-26T22:20:36.074Z,99.90
2019-06-26T22:23:05.293Z,99.90
2019-06-26T22:25:49.904Z,99.90
2019-06-26T22:28:05.317Z,99.90
2019-06-26T22:30:34.616Z,99.90
2019-06-26T22:33:03.919Z,99.90
2019-06-26T22:35:33.197Z,99.90
2019-06-26T22:38:02.449Z,99.90
2019-06-26T22:40:31.701Z,99.90
2019-06-26T22:43:00.926Z,99.90
2019-06-26T22:45:30.096Z,99.90
2019-06-26T22:47:59.385Z,99.90
2019-06-26T22:50:28.689Z,99.90
2019-06-26T22:52:58.001Z,99.90
2019-06-26T22:55:27.216Z,99.90
2019-06-26T22:57:56.533Z,99.90
2019-06-26T23:00:25.858Z,99.90
2019-06-26T23:02:55.156Z,99.90
2019-06-26T23:05:24.513Z,99.90
2019-06-26T23:07:53.814Z,99.90
2019-06-26T23:10:23.141Z,99.90
2019-06-26T23:12:52.357Z,99.90
2019-06-26T23:15:21.577Z,99.90
2019-06-26T23:17:50.822Z,99.90
2019-06-26T23:20:20.057Z,99.90
2019-06-26T23:22:49.383Z,99.90
2019-06-26T23:25:18.657Z,99.90
2019-06-26T23:27:47.878Z,99.90
2019-06-26T23:30:18.893Z,99.90
2019-06-26T23:32:48.243Z,99.90
2019-06-26T23:35:17.505Z,99.90
2019-06-26T23:37:46.757Z,99.90
2019-06-26T23:40:16.222Z,99.90
2019-06-26T23:42:45.460Z,99.90
2019-06-26T23:45:14.882Z,99.90
2019-06-26T23:47:44.265Z,99.90
2019-06-26T23:50:13.509Z,99.90
2019-06-26T23:52:42.801Z,99.90
2019-06-26T23:55:12.305Z,99.90
2019-06-26T23:57:57.693Z,99.90
